createdAt,value
2024-04-25T00:02:12.632Z,3.83
2024-04-25T00:04:43.882Z,9.23
2024-04-25T00:07:14.978Z,7.55
2024-04-25T00:09:46.322Z,6.13
2024-04-25T00:12:20.032Z,5.30
2024-04-25T00:14:51.219Z,5.88
2024-04-25T00:17:22.281Z,5.70
2024-04-25T00:19:53.512Z,7.57
2024-04-25T00:22:25.137Z,6.25
2024-04-25T00:24:57.013Z,4.93
2024-04-25T00:27:30.758Z,12.82
2024-04-25T00:30:01.968Z,15.88
2024-04-25T00:32:36.575Z,8.52
2024-04-25T00:35:08.220Z,11.27
2024-04-25T00:37:39.355Z,9.95
2024-04-25T00:40:11.880Z,6.65
2024-04-25T00:42:45.748Z,10.20
2024-04-25T00:45:16.869Z,5.75
2024-04-25T00:47:45.868Z,5.55
2024-04-25T00:50:17.721Z,8.02
2024-04-25T00:52:49.162Z,7.82
2024-04-25T00:55:20.440Z,6.30
2024-04-25T00:57:55.362Z,6.60
2024-04-25T01:00:29.174Z,7.80
2024-04-25T01:03:01.411Z,7.65
2024-04-25T01:05:34.253Z,6.83
2024-04-25T01:08:09.151Z,6.78
2024-04-25T01:10:40.369Z,7.95
2024-04-25T01:13:14.485Z,7.82
2024-04-25T01:15:45.736Z,5.93
2024-04-25T01:18:17.853Z,6.35
2024-04-25T01:20:49.098Z,7.03
2024-04-25T01:23:20.574Z,7.55
2024-04-25T01:25:55.150Z,7.97
2024-04-25T01:28:26.432Z,8.88
2024-04-25T01:30:57.624Z,5.30
2024-04-25T01:33:30.670Z,6.32
2024-04-25T01:38:36.102Z,4.65
2024-04-25T01:41:10.068Z,5.18
2024-04-25T01:43:41.434Z,8.05
2024-04-25T01:46:12.728Z,8.48
2024-04-25T01:48:47.135Z,5.43
2024-04-25T01:51:19.088Z,7.50
2024-04-25T01:53:50.176Z,7.00
2024-04-25T01:56:24.087Z,6.30
2024-04-25T01:58:55.852Z,5.88
2024-04-25T02:01:27.068Z,5.43
2024-04-25T02:03:58.234Z,5.50
2024-04-25T02:06:29.344Z,6.63
2024-04-25T02:09:00.469Z,7.47
2024-04-25T02:11:35.895Z,5.65
2024-04-25T02:14:08.592Z,7.60
2024-04-25T02:19:11.174Z,6.60
2024-04-25T02:21:58.031Z,7.68
2024-04-25T02:24:44.806Z,6.38
2024-04-25T02:27:20.899Z,9.43
2024-04-25T02:29:52.260Z,6.55
2024-04-25T02:32:24.011Z,8.60
2024-04-25T02:34:55.227Z,7.30
2024-04-25T02:37:26.525Z,7.63
2024-04-25T02:39:57.833Z,9.93
2024-04-25T02:42:31.599Z,8.63
2024-04-25T02:45:02.642Z,7.35
2024-04-25T02:47:33.085Z,5.50
2024-04-25T02:50:04.372Z,10.00
2024-04-25T02:52:33.007Z,7.25
2024-04-25T02:55:04.278Z,6.85
2024-04-25T02:57:36.832Z,9.18
2024-04-25T03:00:09.117Z,6.22
2024-04-25T03:02:37.918Z,8.10
2024-04-25T03:05:09.422Z,10.65
2024-04-25T03:07:38.388Z,7.03
2024-04-25T03:10:10.631Z,9.00
2024-04-25T03:12:41.895Z,7.68
2024-04-25T03:15:13.466Z,9.68
2024-04-25T03:17:42.034Z,11.57
2024-04-25T03:20:14.512Z,8.18
2024-04-25T03:22:43.003Z,9.48
2024-04-25T03:25:13.959Z,7.78
2024-04-25T03:27:45.303Z,11.52
2024-04-25T03:30:16.455Z,18.50
2024-04-25T03:32:44.886Z,14.43
2024-04-25T03:35:16.388Z,11.38
2024-04-25T03:37:49.515Z,10.35
2024-04-25T03:40:20.614Z,10.13
2024-04-25T03:42:54.322Z,10.10
2024-04-25T03:45:28.108Z,12.18
2024-04-25T03:47:59.588Z,10.30
2024-04-25T03:50:30.994Z,13.80
2024-04-25T03:53:02.174Z,13.77
2024-04-25T03:55:34.318Z,27.50
2024-04-25T03:58:08.361Z,11.73
2024-04-25T04:00:39.525Z,11.55
2024-04-25T04:03:11.206Z,8.68
2024-04-25T04:05:43.258Z,8.15
2024-04-25T04:08:15.066Z,9.95
2024-04-25T04:10:46.356Z,14.85
2024-04-25T04:13:20.132Z,13.77
2024-04-25T04:15:51.317Z,10.25
2024-04-25T04:18:22.401Z,9.07
2024-04-25T04:20:53.732Z,7.10
2024-04-25T04:23:25.536Z,8.10
2024-04-25T04:25:57.022Z,7.63
2024-04-25T04:28:30.882Z,10.77
2024-04-25T04:31:02.142Z,10.75
2024-04-25T04:33:40.004Z,11.70
2024-04-25T04:36:12.498Z,12.15
2024-04-25T04:38:43.694Z,8.88
2024-04-25T04:41:15.839Z,11.63
2024-04-25T04:43:51.673Z,10.67
2024-04-25T04:46:22.869Z,11.27
2024-04-25T04:48:54.372Z,9.75
2024-04-25T04:51:25.701Z,9.75
2024-04-25T04:53:56.773Z,12.43
2024-04-25T04:56:28.327Z,10.25
2024-04-25T04:59:02.275Z,9.07
2024-04-25T05:01:33.464Z,10.55
2024-04-25T05:04:04.718Z,14.85
2024-04-25T05:06:36.177Z,10.43
2024-04-25T05:09:11.046Z,14.00
2024-04-25T05:11:42.187Z,12.00
2024-04-25T05:14:16.058Z,14.68
2024-04-25T05:16:47.565Z,15.60
2024-04-25T05:19:20.864Z,12.15
2024-04-25T05:21:55.462Z,18.05
2024-04-25T05:24:26.958Z,22.05
2024-04-25T05:26:58.539Z,18.73
2024-04-25T05:29:34.609Z,15.93
2024-04-25T05:32:06.590Z,13.50
2024-04-25T05:34:37.694Z,13.77
2024-04-25T05:37:09.016Z,16.23
2024-04-25T05:39:40.170Z,15.85
2024-04-25T05:42:11.295Z,12.20
2024-04-25T05:44:48.616Z,12.52
2024-04-25T05:47:19.905Z,12.52
2024-04-25T05:49:51.766Z,17.17
2024-04-25T05:52:23.126Z,16.55
2024-04-25T05:54:54.296Z,23.58
2024-04-25T05:57:25.650Z,18.70
2024-04-25T06:00:00.423Z,54.97
2024-04-25T06:02:31.799Z,41.22
2024-04-25T06:05:02.997Z,41.92
2024-04-25T06:10:10.746Z,23.05
2024-04-25T06:12:42.191Z,23.77
2024-04-25T06:15:16.348Z,24.33
2024-04-25T06:17:47.496Z,19.95
2024-04-25T06:20:21.530Z,12.68
2024-04-25T06:22:53.105Z,13.52
2024-04-25T06:25:24.478Z,18.15
2024-04-25T06:27:56.457Z,13.30
2024-04-25T06:30:30.554Z,19.38
2024-04-25T06:33:01.993Z,13.40
2024-04-25T06:35:33.938Z,12.93
2024-04-25T06:38:05.540Z,11.73
2024-04-25T06:40:36.632Z,11.18
2024-04-25T06:43:08.045Z,8.18
2024-04-25T06:45:43.159Z,10.27
2024-04-25T06:48:14.908Z,9.35
2024-04-25T06:50:46.537Z,9.13
2024-04-25T06:53:17.726Z,10.43
2024-04-25T06:55:48.858Z,13.05
2024-04-25T06:58:21.177Z,11.38
2024-04-25T07:00:55.175Z,13.23
2024-04-25T07:03:26.995Z,15.18
2024-04-25T07:05:58.266Z,15.15
2024-04-25T07:08:31.511Z,10.77
2024-04-25T07:11:04.651Z,19.48
2024-04-25T07:13:35.851Z,23.27
2024-04-25T07:16:11.136Z,21.00
2024-04-25T07:18:42.528Z,16.38
2024-04-25T07:21:13.678Z,9.90
2024-04-25T07:23:45.108Z,14.80
2024-04-25T07:26:16.275Z,10.15
2024-04-25T07:28:47.600Z,13.45
2024-04-25T07:31:21.437Z,17.80
2024-04-25T07:33:55.687Z,9.40
2024-04-25T07:36:28.371Z,13.48
2024-04-25T07:38:59.672Z,9.43
2024-04-25T07:41:33.496Z,9.88
2024-04-25T07:44:04.733Z,16.17
2024-04-25T07:46:42.534Z,11.40
2024-04-25T07:49:14.111Z,8.10
2024-04-25T07:51:45.481Z,8.07
2024-04-25T07:54:16.732Z,7.03
2024-04-25T07:56:48.478Z,7.18
2024-04-25T07:59:19.909Z,8.13
2024-04-25T08:01:53.802Z,6.70
2024-04-25T08:04:25.196Z,7.05
2024-04-25T08:06:56.325Z,7.30
2024-04-25T08:09:27.519Z,6.18
2024-04-25T08:11:58.733Z,7.10
2024-04-25T08:14:29.957Z,8.82
2024-04-25T08:17:03.790Z,10.00
2024-04-25T08:19:35.092Z,11.20
2024-04-25T08:22:07.482Z,7.53
2024-04-25T08:24:39.013Z,9.88
2024-04-25T08:27:10.118Z,9.70
2024-04-25T08:29:41.355Z,6.90
2024-04-25T08:32:15.346Z,8.32
2024-04-25T08:34:46.706Z,8.15
2024-04-25T08:37:17.789Z,9.70
2024-04-25T08:39:48.780Z,9.65
2024-04-25T08:42:23.467Z,8.63
2024-04-25T08:44:54.980Z,8.07
2024-04-25T08:47:30.442Z,9.98
2024-04-25T08:50:05.719Z,8.05
2024-04-25T08:52:38.042Z,8.40
2024-04-25T08:55:12.947Z,9.37
2024-04-25T08:57:44.209Z,9.40
2024-04-25T09:00:16.094Z,12.02
2024-04-25T09:02:53.311Z,10.40
2024-04-25T09:05:26.394Z,11.25
2024-04-25T09:08:00.688Z,8.35
2024-04-25T09:10:42.149Z,14.45
2024-04-25T09:13:13.368Z,12.48
2024-04-25T09:15:44.882Z,11.32
2024-04-25T09:18:19.194Z,11.18
2024-04-25T09:20:50.456Z,13.32
2024-04-25T09:23:21.622Z,28.98
2024-04-25T09:25:53.458Z,11.40
2024-04-25T09:28:25.104Z,11.43
2024-04-25T09:30:56.385Z,12.02
2024-04-25T09:33:30.738Z,10.38
2024-04-25T09:36:02.287Z,10.68
2024-04-25T09:38:33.567Z,10.90
2024-04-25T09:41:06.659Z,12.05
2024-04-25T09:46:13.941Z,27.45
2024-04-25T09:48:51.384Z,10.77
2024-04-25T09:51:27.125Z,43.10
2024-04-25T09:54:03.157Z,13.75
2024-04-25T09:56:35.239Z,13.93
2024-04-25T09:59:12.886Z,11.85
2024-04-25T10:01:45.777Z,8.07
2024-04-25T10:04:20.088Z,8.48
2024-04-25T10:06:51.897Z,14.90
2024-04-25T10:09:23.655Z,9.13
2024-04-25T10:11:54.830Z,10.20
2024-04-25T10:14:29.741Z,9.77
2024-04-25T10:17:03.380Z,6.97
2024-04-25T10:19:44.479Z,8.65
2024-04-25T10:22:23.985Z,11.55
2024-04-25T10:24:56.306Z,11.18
2024-04-25T10:27:30.522Z,9.40
2024-04-25T10:30:06.719Z,13.30
2024-04-25T10:32:40.806Z,7.78
2024-04-25T10:35:16.891Z,13.02
2024-04-25T10:37:49.524Z,15.68
2024-04-25T10:40:22.190Z,11.07
2024-04-25T10:43:04.911Z,12.73
2024-04-25T10:45:38.175Z,13.65
2024-04-25T10:48:11.730Z,11.40
2024-04-25T10:50:47.141Z,9.48
2024-04-25T10:53:18.542Z,13.38
2024-04-25T10:55:49.826Z,11.35
2024-04-25T10:58:20.924Z,10.48
2024-04-25T11:00:51.997Z,11.68
2024-04-25T11:03:23.263Z,14.73
2024-04-25T11:05:57.386Z,8.82
2024-04-25T11:08:29.472Z,7.07
2024-04-25T11:11:01.198Z,7.28
2024-04-25T11:13:32.933Z,10.13
2024-04-25T11:16:04.020Z,8.57
2024-04-25T11:18:35.791Z,8.02
2024-04-25T11:21:11.956Z,7.75
2024-04-25T11:23:43.313Z,7.43
2024-04-25T11:26:15.133Z,9.40
2024-04-25T11:28:46.363Z,8.35
2024-04-25T11:31:17.470Z,7.20
2024-04-25T11:33:48.805Z,6.57
2024-04-25T11:36:31.217Z,7.38
2024-04-25T11:39:05.993Z,6.38
2024-04-25T11:41:37.451Z,7.70
2024-04-25T11:44:08.838Z,6.97
2024-04-25T11:46:40.370Z,6.30
2024-04-25T11:49:11.712Z,6.63
2024-04-25T11:51:45.724Z,6.40
2024-04-25T11:54:16.958Z,7.22
2024-04-25T11:56:48.303Z,5.38
2024-04-25T11:59:19.641Z,9.23
2024-04-25T12:01:54.405Z,7.55
2024-04-25T12:04:28.803Z,5.13
2024-04-25T12:07:02.835Z,15.95
2024-04-25T12:09:34.127Z,7.03
2024-04-25T12:12:05.449Z,12.57
2024-04-25T12:14:36.975Z,11.40
2024-04-25T12:17:08.939Z,4.68
2024-04-25T12:19:40.094Z,3.80
2024-04-25T12:22:15.813Z,9.50
2024-04-25T12:24:46.994Z,6.75
2024-04-25T12:27:18.343Z,6.18
2024-04-25T12:29:50.767Z,3.83
2024-04-25T12:32:22.084Z,2.97
2024-04-25T12:34:53.151Z,3.25
2024-04-25T12:37:26.859Z,3.42
2024-04-25T12:39:58.215Z,3.80
2024-04-25T12:42:29.261Z,5.00
2024-04-25T12:45:00.444Z,3.75
2024-04-25T12:47:31.692Z,4.93
2024-04-25T12:50:02.939Z,4.22
2024-04-25T12:52:37.502Z,5.75
2024-04-25T12:55:09.021Z,2.40
2024-04-25T12:57:40.312Z,2.97
2024-04-25T13:00:13.237Z,5.57
2024-04-25T13:02:44.796Z,3.22
2024-04-25T13:05:16.376Z,7.22
2024-04-25T13:07:50.268Z,6.43
2024-04-25T13:10:21.777Z,7.15
2024-04-25T13:12:53.477Z,4.78
2024-04-25T13:15:27.897Z,8.45
2024-04-25T13:18:00.568Z,7.65
2024-04-25T13:20:32.024Z,4.10
2024-04-25T13:23:06.302Z,3.47
2024-04-25T13:25:38.305Z,2.83
2024-04-25T13:28:09.639Z,2.80
2024-04-25T13:30:40.953Z,3.50
2024-04-25T13:33:13.328Z,4.43
2024-04-25T13:35:44.730Z,3.22
2024-04-25T13:38:18.664Z,3.47
2024-04-25T13:40:49.883Z,4.13
2024-04-25T13:43:22.229Z,5.55
2024-04-25T13:45:54.844Z,4.13
2024-04-25T13:48:26.552Z,3.88
2024-04-25T13:50:57.967Z,3.65
2024-04-25T13:53:31.902Z,5.53
2024-04-25T13:56:03.116Z,7.28
2024-04-25T13:58:35.828Z,15.18
2024-04-25T14:01:12.667Z,5.22
2024-04-25T14:03:45.359Z,5.90
2024-04-25T14:06:17.874Z,4.43
2024-04-25T14:08:51.984Z,7.68
2024-04-25T14:11:23.446Z,8.77
2024-04-25T14:13:54.887Z,16.20
2024-04-25T14:16:26.385Z,9.52
2024-04-25T14:18:56.807Z,40.72
2024-04-25T14:21:28.689Z,83.60
2024-04-25T14:24:02.732Z,292.73
2024-04-25T14:26:49.620Z,177.93
2024-04-25T14:29:22.040Z,98.57
2024-04-25T14:31:53.187Z,23.13
2024-04-25T14:34:27.266Z,53.28
2024-04-25T14:36:59.316Z,107.30
2024-04-25T14:39:33.091Z,35.72
2024-04-25T14:42:04.322Z,51.33
2024-04-25T14:44:36.990Z,28.13
2024-04-25T14:47:09.272Z,24.58
2024-04-25T14:49:41.095Z,63.75
2024-04-25T14:52:12.271Z,47.10
2024-04-25T14:54:46.941Z,111.80
2024-04-25T14:57:18.140Z,77.63
2024-04-25T14:59:50.455Z,28.90
2024-04-25T15:02:21.821Z,40.47
2024-04-25T15:04:53.143Z,73.82
2024-04-25T15:07:24.452Z,37.33
2024-04-25T15:09:58.447Z,10.35
2024-04-25T15:12:30.534Z,6.35
2024-04-25T15:15:11.535Z,6.57
2024-04-25T15:17:50.316Z,22.63
2024-04-25T15:20:22.495Z,7.63
2024-04-25T15:22:56.301Z,28.80
2024-04-25T15:25:31.812Z,12.95
2024-04-25T15:28:04.059Z,12.43
2024-04-25T15:30:37.098Z,7.80
2024-04-25T15:35:39.755Z,14.30
2024-04-25T15:38:10.919Z,9.48
2024-04-25T15:40:44.951Z,7.60
2024-04-25T15:43:16.290Z,5.75
2024-04-25T15:45:47.614Z,8.13
2024-04-25T15:48:19.123Z,6.60
2024-04-25T15:50:50.436Z,6.28
2024-04-25T15:53:21.733Z,5.32
2024-04-25T15:55:56.826Z,10.77
2024-04-25T15:58:27.954Z,8.95
2024-04-25T16:00:59.472Z,6.10
2024-04-25T16:03:31.174Z,7.13
2024-04-25T16:06:02.557Z,8.73
2024-04-25T16:08:34.035Z,7.25
2024-04-25T16:11:08.346Z,6.55
2024-04-25T16:13:39.774Z,7.30
2024-04-25T16:16:12.211Z,6.68
2024-04-25T16:18:43.439Z,87.73
2024-04-25T16:21:14.780Z,11.23
2024-04-25T16:23:46.394Z,14.35
2024-04-25T16:26:22.708Z,10.02
2024-04-25T16:28:54.070Z,25.92
2024-04-25T16:31:27.492Z,15.38
2024-04-25T16:33:59.657Z,12.35
2024-04-25T16:36:33.158Z,12.32
2024-04-25T16:39:04.315Z,18.38
2024-04-25T16:41:38.405Z,11.57
2024-04-25T16:44:09.842Z,9.27
2024-04-25T16:46:41.702Z,10.75
2024-04-25T16:49:12.965Z,9.50
2024-04-25T16:51:44.211Z,15.85
2024-04-25T16:54:15.719Z,11.10
2024-04-25T16:56:49.779Z,15.52
2024-04-25T16:59:24.368Z,16.30
2024-04-25T17:01:55.782Z,16.65
2024-04-25T17:04:27.117Z,18.88
2024-04-25T17:06:59.048Z,13.20
2024-04-25T17:09:30.201Z,20.13
2024-04-25T17:12:04.084Z,39.13
2024-04-25T17:14:35.614Z,19.33
2024-04-25T17:17:07.271Z,33.45
2024-04-25T17:19:38.523Z,45.00
2024-04-25T17:22:11.309Z,59.30
2024-04-25T17:24:42.981Z,56.90
2024-04-25T17:27:16.795Z,29.92
2024-04-25T17:29:48.099Z,17.27
2024-04-25T17:32:21.374Z,16.55
2024-04-25T17:34:52.563Z,14.40
2024-04-25T17:37:23.697Z,13.90
2024-04-25T17:39:55.123Z,16.15
2024-04-25T17:42:29.062Z,15.88
2024-04-25T17:45:00.513Z,14.70
2024-04-25T17:47:32.208Z,61.00
2024-04-25T17:50:03.657Z,71.72
2024-04-25T17:52:34.957Z,138.77
2024-04-25T17:55:09.021Z,54.17
2024-04-25T17:57:44.409Z,32.42
2024-04-25T18:00:16.991Z,20.52
2024-04-25T18:02:51.475Z,15.23
2024-04-25T18:05:22.742Z,18.23
2024-04-25T18:07:53.883Z,31.15
2024-04-25T18:10:25.114Z,22.83
2024-04-25T18:12:58.959Z,22.85
2024-04-25T18:15:30.531Z,28.05
2024-04-25T18:18:04.722Z,24.90
2024-04-25T18:20:36.443Z,17.05
2024-04-25T18:23:07.812Z,21.20
2024-04-25T18:25:38.943Z,22.90
2024-04-25T18:28:12.944Z,26.88
2024-04-25T18:30:44.148Z,53.78
2024-04-25T18:33:15.408Z,52.22
2024-04-25T18:35:46.708Z,37.22
2024-04-25T18:38:20.291Z,37.72
2024-04-25T18:40:51.558Z,33.45
2024-04-25T18:43:25.467Z,28.65
2024-04-25T18:45:56.736Z,24.35
2024-04-25T18:48:30.214Z,31.73
2024-04-25T18:51:01.454Z,28.48
2024-04-25T18:53:32.621Z,32.15
2024-04-25T18:56:03.815Z,20.83
2024-04-25T18:58:37.688Z,20.00
2024-04-25T19:01:09.019Z,23.92
2024-04-25T19:03:41.732Z,32.70
2024-04-25T19:06:13.224Z,29.77
2024-04-25T19:08:44.525Z,42.05
2024-04-25T19:11:15.901Z,37.65
2024-04-25T19:13:49.755Z,33.00
2024-04-25T19:16:35.702Z,34.17
2024-04-25T19:19:06.961Z,30.55
2024-04-25T19:21:43.808Z,33.83
2024-04-25T19:24:16.828Z,29.30
2024-04-25T19:26:50.122Z,26.10
2024-04-25T19:29:24.253Z,26.30
2024-04-25T19:31:57.379Z,37.35
2024-04-25T19:37:00.885Z,32.35
2024-04-25T19:39:32.109Z,26.35
2024-04-25T19:42:05.307Z,24.58
2024-04-25T19:44:39.280Z,20.75
2024-04-25T19:47:10.558Z,22.42
2024-04-25T19:49:41.977Z,20.00
2024-04-25T19:52:13.923Z,17.55
2024-04-25T19:54:45.207Z,14.70
2024-04-25T19:57:18.274Z,17.30
2024-04-25T19:59:52.350Z,14.02
2024-04-25T20:02:29.945Z,14.38
2024-04-25T20:05:01.465Z,16.27
2024-04-25T20:07:35.356Z,16.77
2024-04-25T20:10:06.919Z,21.40
2024-04-25T20:12:38.097Z,21.20
2024-04-25T20:15:12.664Z,21.35
2024-04-25T20:17:59.857Z,25.92
2024-04-25T20:20:46.720Z,24.90
2024-04-25T20:23:17.828Z,27.88
2024-04-25T20:25:49.007Z,26.95
2024-04-25T20:28:20.395Z,23.33
2024-04-25T20:30:54.279Z,23.98
2024-04-25T20:33:25.586Z,19.25
2024-04-25T20:35:56.892Z,18.27
2024-04-25T20:38:28.203Z,16.90
2024-04-25T20:40:59.370Z,12.63
2024-04-25T20:43:30.581Z,12.95
2024-04-25T20:46:04.529Z,13.07
2024-04-25T20:48:35.952Z,13.77
2024-04-25T20:51:07.603Z,18.23
2024-04-25T20:53:41.992Z,17.50
2024-04-25T20:56:13.404Z,17.77
2024-04-25T20:58:45.935Z,19.55
2024-04-25T21:01:20.452Z,21.38
2024-04-25T21:03:51.629Z,22.13
2024-04-25T21:06:28.083Z,22.52
2024-04-25T21:08:59.646Z,20.75
2024-04-25T21:11:31.077Z,24.55
2024-04-25T21:14:02.172Z,23.27
2024-04-25T21:16:41.197Z,37.38
2024-04-25T21:19:12.470Z,26.40
2024-04-25T21:21:49.487Z,30.30
2024-04-25T21:24:20.740Z,47.75
2024-04-25T21:26:51.956Z,46.92
2024-04-25T21:29:23.610Z,34.92
2024-04-25T21:31:59.334Z,30.65
2024-04-25T21:34:30.687Z,34.90
2024-04-25T21:37:01.712Z,33.17
2024-04-25T21:39:32.843Z,28.10
2024-04-25T21:42:03.925Z,25.67
2024-04-25T21:44:35.123Z,20.83
2024-04-25T21:47:09.714Z,22.30
2024-04-25T21:49:40.956Z,21.67
2024-04-25T21:52:12.095Z,25.58
2024-04-25T21:54:43.541Z,19.25
2024-04-25T21:57:18.663Z,21.67
2024-04-25T21:59:51.060Z,21.88
2024-04-25T22:02:26.116Z,26.98
2024-04-25T22:04:57.218Z,22.10
2024-04-25T22:07:28.420Z,26.52
2024-04-25T22:09:59.522Z,21.42
2024-04-25T22:12:31.071Z,20.13
2024-04-25T22:15:02.533Z,21.63
2024-04-25T22:17:37.645Z,20.85
2024-04-25T22:20:09.694Z,30.95
2024-04-25T22:22:42.336Z,28.05
2024-04-25T22:25:13.749Z,24.58
2024-04-25T22:27:45.215Z,30.80
2024-04-25T22:30:16.374Z,23.08
2024-04-25T22:32:50.364Z,23.17
2024-04-25T22:35:21.642Z,22.08
2024-04-25T22:37:52.648Z,27.65
2024-04-25T22:40:24.376Z,24.17
2024-04-25T22:42:52.933Z,25.63
2024-04-25T22:45:28.535Z,24.08
2024-04-25T22:48:05.946Z,22.05
2024-04-25T22:50:37.017Z,19.40
2024-04-25T22:53:08.534Z,19.92
2024-04-25T22:55:39.624Z,16.58
2024-04-25T22:58:10.917Z,18.02
2024-04-25T23:00:42.004Z,17.80
2024-04-25T23:03:16.120Z,15.63
2024-04-25T23:05:47.804Z,15.82
2024-04-25T23:08:19.185Z,17.58
2024-04-25T23:10:50.195Z,16.42
2024-04-25T23:13:24.399Z,17.27
2024-04-25T23:15:55.463Z,16.30
2024-04-25T23:18:29.455Z,16.50
2024-04-25T23:21:00.542Z,18.52
2024-04-25T23:23:31.720Z,17.38
2024-04-25T23:26:02.842Z,19.27
2024-04-25T23:28:33.849Z,16.83
2024-04-25T23:31:05.025Z,16.88
2024-04-25T23:33:38.909Z,18.48
2024-04-25T23:36:10.759Z,21.38
2024-04-25T23:38:41.869Z,16.85
2024-04-25T23:41:13.300Z,19.17
2024-04-25T23:43:44.439Z,21.67
2024-04-25T23:46:15.685Z,20.52
2024-04-25T23:48:49.650Z,20.52
2024-04-25T23:51:20.843Z,20.50
2024-04-25T23:53:52.968Z,19.00
2024-04-25T23:56:24.037Z,23.80
2024-04-25T23:58:56.074Z,23.95
